createdAt,value
2023-04-19T00:01:58.194Z,10.80
2023-04-19T00:06:00.575Z,10.75
2023-04-19T00:10:02.256Z,10.70
2023-04-19T00:14:04.320Z,10.70
2023-04-19T00:18:06.131Z,10.72
2023-04-19T00:22:08.197Z,10.71
2023-04-19T00:26:11.648Z,10.67
2023-04-19T00:30:14.405Z,10.64
2023-04-19T00:34:16.483Z,10.66
2023-04-19T00:38:18.482Z,10.65
2023-04-19T00:42:20.246Z,10.62
2023-04-19T00:46:22.823Z,10.60
2023-04-19T00:50:24.858Z,10.58
2023-04-19T00:54:27.554Z,10.58
2023-04-19T00:58:31.723Z,10.58
2023-04-19T01:02:33.474Z,10.59
2023-04-19T01:06:36.421Z,10.58
2023-04-19T01:10:38.078Z,10.53
2023-04-19T01:14:40.092Z,10.52
2023-04-19T01:18:42.004Z,10.44
2023-04-19T01:22:43.803Z,10.40
2023-04-19T01:26:45.653Z,10.40
2023-04-19T01:30:47.725Z,10.40
2023-04-19T01:34:49.493Z,10.38
2023-04-19T01:38:51.207Z,10.32
2023-04-19T01:42:53.259Z,10.27
2023-04-19T01:46:55.502Z,10.23
2023-04-19T01:50:57.340Z,10.21
2023-04-19T01:54:59.104Z,10.18
2023-04-19T01:59:00.908Z,10.11
2023-04-19T02:03:02.796Z,10.03
2023-04-19T02:07:04.652Z,9.94
2023-04-19T02:11:10.858Z,9.89
2023-04-19T02:15:12.608Z,9.89
2023-04-19T02:19:14.299Z,9.92
2023-04-19T02:23:16.073Z,9.93
2023-04-19T02:27:18.014Z,9.94
2023-04-19T02:31:19.849Z,9.90
2023-04-19T02:35:21.537Z,9.89
2023-04-19T02:39:23.363Z,9.86
2023-04-19T02:43:29.794Z,9.84
2023-04-19T02:47:31.493Z,9.81
2023-04-19T02:51:33.305Z,9.78
2023-04-19T02:55:35.146Z,9.73
2023-04-19T02:59:43.063Z,9.66
2023-04-19T03:03:44.792Z,9.62
2023-04-19T03:07:46.998Z,9.57
2023-04-19T03:11:49.267Z,9.52
2023-04-19T03:15:52.799Z,9.48
2023-04-19T03:19:57.658Z,9.46
2023-04-19T03:23:59.830Z,9.41
2023-04-19T03:28:02.660Z,9.37
2023-04-19T03:32:33.475Z,9.33
2023-04-19T03:36:35.622Z,9.28
2023-04-19T03:40:38.452Z,9.22
2023-04-19T03:44:41.567Z,9.16
2023-04-19T03:48:47.798Z,9.13
2023-04-19T03:52:49.611Z,9.11
2023-04-19T03:56:51.897Z,9.08
2023-04-19T04:00:53.784Z,9.10
2023-04-19T04:04:56.137Z,9.07
2023-04-19T04:08:58.931Z,9.00
2023-04-19T04:13:00.784Z,8.90
2023-04-19T04:17:13.157Z,8.77
2023-04-19T04:21:24.355Z,8.66
2023-04-19T04:25:29.096Z,8.53
2023-04-19T04:29:33.245Z,8.41
2023-04-19T04:33:41.478Z,8.31
2023-04-19T04:37:48.922Z,8.22
2023-04-19T04:41:52.074Z,8.20
2023-04-19T04:45:55.871Z,8.21
2023-04-19T04:49:59.495Z,8.22
2023-04-19T04:54:01.561Z,8.19
2023-04-19T04:58:06.522Z,8.14
2023-04-19T05:02:27.450Z,8.12
2023-04-19T05:06:29.204Z,8.10
2023-04-19T05:10:31.283Z,8.07
2023-04-19T05:14:34.099Z,8.08
2023-04-19T05:18:37.266Z,8.16
2023-04-19T05:22:40.320Z,8.20
2023-04-19T05:26:45.681Z,8.28
2023-04-19T05:30:49.537Z,8.44
2023-04-19T05:34:51.565Z,8.63
2023-04-19T05:38:55.494Z,8.91
2023-04-19T05:42:58.906Z,9.20
2023-04-19T05:47:01.529Z,9.46
2023-04-19T05:51:24.632Z,9.69
2023-04-19T05:55:48.192Z,9.92
2023-04-19T05:59:52.087Z,10.11
2023-04-19T06:03:57.980Z,10.29
2023-04-19T06:08:04.893Z,10.46
2023-04-19T06:12:10.105Z,10.56
2023-04-19T06:16:11.800Z,10.64
2023-04-19T06:20:15.857Z,10.73
2023-04-19T06:24:17.669Z,10.83
2023-04-19T06:28:20.831Z,11.02
2023-04-19T06:32:22.563Z,11.15
2023-04-19T06:36:25.469Z,11.22
2023-04-19T06:40:29.589Z,11.40
2023-04-19T06:44:32.900Z,11.77
2023-04-19T06:48:35.215Z,12.13
2023-04-19T06:52:40.922Z,12.33
2023-04-19T06:56:48.602Z,12.35
2023-04-19T07:00:50.292Z,12.39
2023-04-19T07:04:52.360Z,12.33
2023-04-19T07:08:55.288Z,12.35
2023-04-19T07:12:57.109Z,12.49
2023-04-19T07:17:00.993Z,12.51
2023-04-19T07:21:04.935Z,12.48
2023-04-19T07:25:08.459Z,12.47
2023-04-19T07:29:14.571Z,12.70
2023-04-19T07:33:16.436Z,12.94
2023-04-19T07:37:18.196Z,13.03
2023-04-19T07:41:19.956Z,13.17
2023-04-19T07:45:21.980Z,13.18
2023-04-19T07:49:25.471Z,13.04
2023-04-19T07:53:28.842Z,13.12
2023-04-19T07:57:31.124Z,13.10
2023-04-19T08:01:33.150Z,12.89
2023-04-19T08:05:37.484Z,12.81
2023-04-19T08:09:39.211Z,12.72
2023-04-19T08:13:55.157Z,12.61
2023-04-19T08:18:07.611Z,12.73
2023-04-19T08:22:11.398Z,12.97
2023-04-19T08:26:16.465Z,13.18
2023-04-19T08:30:19.449Z,13.41
2023-04-19T08:34:21.785Z,13.72
2023-04-19T08:38:24.953Z,14.03
2023-04-19T08:42:35.434Z,13.94
2023-04-19T08:46:40.521Z,13.90
2023-04-19T08:51:00.739Z,14.18
2023-04-19T08:55:08.969Z,14.34
2023-04-19T08:59:18.672Z,14.61
2023-04-19T09:03:22.341Z,14.90
2023-04-19T09:07:26.537Z,15.03
2023-04-19T09:11:40.692Z,15.03
2023-04-19T09:15:44.788Z,15.12
2023-04-19T09:19:49.899Z,15.00
2023-04-19T09:23:51.978Z,14.98
2023-04-19T09:27:55.530Z,15.08
2023-04-19T09:31:59.185Z,15.19
2023-04-19T09:36:01.514Z,14.93
2023-04-19T09:40:25.522Z,15.20
2023-04-19T09:48:33.347Z,15.69
2023-04-19T09:52:35.640Z,15.93
2023-04-19T09:56:38.026Z,16.08
2023-04-19T10:00:48.964Z,16.05
2023-04-19T10:05:18.906Z,16.18
2023-04-19T10:09:22.951Z,16.74
2023-04-19T10:13:26.855Z,17.04
2023-04-19T10:17:28.958Z,16.87
2023-04-19T10:21:33.485Z,16.48
2023-04-19T10:25:37.659Z,16.63
2023-04-19T10:30:01.452Z,17.23
2023-04-19T10:34:03.231Z,17.13
2023-04-19T10:38:14.099Z,17.06
2023-04-19T10:42:21.697Z,16.82
2023-04-19T10:46:24.692Z,17.24
2023-04-19T10:50:27.054Z,17.50
2023-04-19T10:54:36.702Z,17.10
2023-04-19T10:59:00.393Z,17.01
2023-04-19T11:03:51.961Z,17.31
2023-04-19T11:07:56.800Z,17.30
2023-04-19T11:12:09.406Z,16.94
2023-04-19T11:16:12.887Z,16.81
2023-04-19T11:20:14.831Z,17.09
2023-04-19T11:24:18.970Z,17.04
2023-04-19T11:28:21.893Z,17.08
2023-04-19T11:32:23.759Z,17.24
2023-04-19T11:36:27.190Z,17.14
2023-04-19T11:40:30.563Z,17.07
2023-04-19T11:44:34.452Z,17.42
2023-04-19T11:48:40.577Z,17.38
2023-04-19T11:52:49.603Z,17.57
2023-04-19T11:57:07.388Z,17.51
2023-04-19T12:01:20.340Z,17.77
2023-04-19T12:05:27.803Z,18.37
2023-04-19T12:09:37.084Z,18.84
2023-04-19T12:13:40.960Z,19.31
2023-04-19T12:18:04.531Z,20.02
2023-04-19T12:22:20.463Z,20.39
2023-04-19T12:26:22.186Z,20.65
2023-04-19T12:30:29.473Z,21.13
2023-04-19T12:34:34.837Z,21.41
2023-04-19T12:38:37.768Z,21.78
2023-04-19T12:42:42.539Z,22.51
2023-04-19T12:46:47.864Z,21.74
2023-04-19T12:50:49.941Z,22.08
2023-04-19T12:54:55.699Z,22.86
2023-04-19T12:58:57.421Z,23.53
2023-04-19T13:02:59.608Z,23.45
2023-04-19T13:07:04.896Z,23.02
2023-04-19T13:11:06.794Z,23.09
2023-04-19T13:15:10.490Z,23.75
2023-04-19T13:19:14.050Z,24.16
2023-04-19T13:23:16.030Z,24.87
2023-04-19T13:27:17.811Z,24.54
2023-04-19T13:31:20.869Z,24.64
2023-04-19T13:35:22.733Z,24.05
2023-04-19T13:39:24.678Z,24.00
2023-04-19T13:43:27.790Z,24.15
2023-04-19T13:47:29.460Z,24.65
2023-04-19T13:51:46.422Z,25.12
2023-04-19T13:55:52.920Z,24.59
2023-04-19T13:59:55.659Z,23.13
2023-04-19T14:03:59.055Z,22.35
2023-04-19T14:08:03.112Z,21.31
2023-04-19T14:12:10.150Z,20.90
2023-04-19T14:16:11.944Z,20.95
2023-04-19T14:20:14.416Z,20.62
2023-04-19T14:24:17.433Z,20.25
2023-04-19T14:28:21.194Z,19.88
2023-04-19T14:32:27.097Z,19.41
2023-04-19T14:36:29.210Z,19.04
2023-04-19T14:40:31.063Z,18.47
2023-04-19T14:44:32.729Z,18.21
2023-04-19T14:48:34.576Z,18.47
2023-04-19T14:52:36.429Z,18.45
2023-04-19T14:56:38.594Z,18.95
2023-04-19T15:00:41.328Z,19.27
2023-04-19T15:04:44.706Z,18.54
2023-04-19T15:08:47.193Z,17.95
2023-04-19T15:12:50.892Z,17.66
2023-04-19T15:16:52.755Z,17.56
2023-04-19T15:20:54.598Z,17.24
2023-04-19T15:24:56.419Z,17.02
2023-04-19T15:28:58.420Z,16.70
2023-04-19T15:33:00.268Z,16.36
2023-04-19T15:37:02.521Z,16.07
2023-04-19T15:41:04.509Z,15.79
2023-04-19T15:45:07.349Z,15.65
2023-04-19T15:49:09.966Z,15.75
2023-04-19T15:53:12.619Z,16.21
2023-04-19T15:57:22.699Z,16.71
2023-04-19T16:01:25.520Z,17.79
2023-04-19T16:05:31.585Z,18.75
2023-04-19T16:09:33.241Z,18.53
2023-04-19T16:13:35.963Z,18.61
2023-04-19T16:17:37.703Z,18.93
2023-04-19T16:21:39.839Z,18.54
2023-04-19T16:25:41.943Z,18.83
2023-04-19T16:29:43.909Z,19.76
2023-04-19T16:33:45.827Z,19.53
2023-04-19T16:37:47.836Z,18.75
2023-04-19T16:41:49.844Z,18.52
2023-04-19T16:45:51.603Z,19.01
2023-04-19T16:49:54.933Z,18.40
2023-04-19T16:53:57.942Z,17.98
2023-04-19T16:57:59.709Z,17.51
2023-04-19T17:02:02.535Z,17.10
2023-04-19T17:06:05.546Z,17.41
2023-04-19T17:10:08.488Z,17.71
2023-04-19T17:14:10.508Z,17.09
2023-04-19T17:18:12.268Z,16.63
2023-04-19T17:22:15.322Z,16.64
2023-04-19T17:26:17.072Z,16.13
2023-04-19T17:30:19.021Z,15.49
2023-04-19T17:34:21.486Z,14.98
2023-04-19T17:38:23.146Z,14.67
2023-04-19T17:42:24.896Z,15.06
2023-04-19T17:46:26.724Z,15.07
2023-04-19T17:50:30.190Z,14.95
2023-04-19T17:54:32.062Z,14.90
2023-04-19T17:58:37.549Z,14.79
2023-04-19T18:02:40.900Z,14.30
2023-04-19T18:06:42.948Z,13.61
2023-04-19T18:10:47.048Z,12.98
2023-04-19T18:14:49.953Z,12.45
2023-04-19T18:18:51.809Z,12.06
2023-04-19T18:22:55.500Z,11.71
2023-04-19T18:26:58.393Z,11.34
2023-04-19T18:31:00.413Z,11.05
2023-04-19T18:35:08.968Z,10.72
2023-04-19T18:39:13.491Z,10.38
2023-04-19T18:43:15.888Z,10.16
2023-04-19T18:47:17.960Z,9.93
2023-04-19T18:51:20.839Z,9.70
2023-04-19T18:55:24.544Z,9.51
2023-04-19T18:59:26.236Z,9.31
2023-04-19T19:03:57.923Z,9.15
2023-04-19T19:07:54.166Z,8.96
2023-04-19T19:11:58.026Z,8.81
2023-04-19T19:15:59.847Z,8.72
2023-04-19T19:20:02.631Z,8.60
2023-04-19T19:24:06.358Z,8.48
2023-04-19T19:28:10.232Z,8.36
2023-04-19T19:32:12.048Z,8.22
2023-04-19T19:36:15.752Z,8.14
2023-04-19T19:40:19.543Z,8.07
2023-04-19T19:44:25.912Z,7.98
2023-04-19T19:48:30.192Z,7.89
2023-04-19T19:52:32.876Z,7.86
2023-04-19T19:56:34.992Z,7.81
2023-04-19T20:00:45.972Z,7.79
2023-04-19T20:04:49.140Z,7.76
2023-04-19T20:08:51.385Z,7.73
2023-04-19T20:12:57.269Z,7.64
2023-04-19T20:17:01.526Z,7.63
2023-04-19T20:21:04.560Z,7.60
2023-04-19T20:25:06.819Z,7.58
2023-04-19T20:29:09.009Z,7.56
2023-04-19T20:33:12.497Z,7.52
2023-04-19T20:37:14.192Z,7.44
2023-04-19T20:41:16.568Z,7.36
2023-04-19T20:45:19.254Z,7.27
2023-04-19T20:49:21.643Z,7.22
2023-04-19T20:53:23.612Z,7.19
2023-04-19T20:57:25.885Z,7.14
2023-04-19T21:01:28.615Z,7.08
2023-04-19T21:05:30.570Z,7.04
2023-04-19T21:09:32.339Z,7.01
2023-04-19T21:13:34.525Z,6.95
2023-04-19T21:17:36.909Z,6.91
2023-04-19T21:21:38.566Z,6.85
2023-04-19T21:25:40.421Z,6.78
2023-04-19T21:29:42.097Z,6.71
2023-04-19T21:33:43.902Z,6.63
2023-04-19T21:37:45.688Z,6.54
2023-04-19T21:41:47.474Z,6.47
2023-04-19T21:45:49.162Z,6.37
2023-04-19T21:49:51.681Z,6.31
2023-04-19T21:53:54.442Z,6.23
2023-04-19T21:57:56.215Z,6.15
2023-04-19T22:01:58.981Z,6.09
2023-04-19T22:06:02.246Z,6.04
2023-04-19T22:10:17.257Z,5.98
2023-04-19T22:14:23.197Z,5.90
2023-04-19T22:18:24.901Z,5.83
2023-04-19T22:22:26.567Z,5.78
2023-04-19T22:26:29.429Z,5.70
2023-04-19T22:30:31.067Z,5.65
2023-04-19T22:34:32.820Z,5.59
2023-04-19T22:38:34.471Z,5.59
2023-04-19T22:42:37.259Z,5.61
2023-04-19T22:46:39.201Z,5.58
2023-04-19T22:50:42.164Z,5.58
2023-04-19T22:54:43.701Z,5.54
2023-04-19T22:58:45.444Z,5.54
2023-04-19T23:02:47.251Z,5.50
2023-04-19T23:06:48.941Z,5.50
2023-04-19T23:10:51.120Z,5.46
2023-04-19T23:14:52.773Z,5.44
2023-04-19T23:18:55.139Z,5.36
2023-04-19T23:22:57.265Z,5.26
2023-04-19T23:26:58.996Z,5.19
2023-04-19T23:31:00.812Z,5.15
2023-04-19T23:35:03.114Z,5.11
2023-04-19T23:39:05.267Z,5.07
2023-04-19T23:43:07.055Z,5.06
2023-04-19T23:47:09.432Z,5.04
2023-04-19T23:51:12.697Z,5.03
2023-04-19T23:55:14.412Z,5.05
2023-04-19T23:59:16.764Z,5.05
